Time;durP1;ratioP1;P1;durP2;ratioP2;P2;SDS_P1;SDS_P2;PMS_P1;PMS_P2;Temp;Humidity;BMP_temperature;BMP_pressure;BME280_temperature;BME280_humidity;BME280_pressure;Samples;Min_cycle;Max_cycle;Signal;HPM_P1;HPM_P2
2023/12/15 00:00:21;;;;;;;16.83;13.07;;;;;;;;;;5028282;28;20419;-71
2023/12/15 00:02:49;;;;;;;15.10;13.50;;;;;;;;;;5026671;28;20798;-70
2023/12/15 00:05:16;;;;;;;15.15;12.82;;;;;;;;;;5027337;28;20858;-71
2023/12/15 00:07:43;;;;;;;15.63;12.75;;;;;;;;;;5025038;28;20932;-70
2023/12/15 00:10:12;;;;;;;16.17;12.93;;;;;;;;;;5025731;28;20920;-69
2023/12/15 00:12:39;;;;;;;15.07;13.48;;;;;;;;;;5026390;28;20434;-70
2023/12/15 00:15:06;;;;;;;17.20;13.43;;;;;;;;;;5026620;28;20411;-70
2023/12/15 00:17:33;;;;;;;16.95;13.90;;;;;;;;;;5025893;28;20430;-70
2023/12/15 00:20:03;;;;;;;16.52;12.52;;;;;;;;;;5026986;28;20499;-71
2023/12/15 00:22:30;;;;;;;16.25;14.32;;;;;;;;;;5025863;28;20760;-70
2023/12/15 00:24:57;;;;;;;15.70;13.38;;;;;;;;;;5024851;28;20426;-70
2023/12/15 00:27:24;;;;;;;15.65;13.20;;;;;;;;;;5025591;28;20434;-70
2023/12/15 00:29:51;;;;;;;16.50;14.35;;;;;;;;;;5025659;28;20887;-70
2023/12/15 00:32:19;;;;;;;17.98;13.90;;;;;;;;;;5025762;28;20423;-70
2023/12/15 00:34:46;;;;;;;15.60;13.57;;;;;;;;;;5025577;28;20445;-70
2023/12/15 00:37:14;;;;;;;15.45;13.75;;;;;;;;;;5024690;28;20431;-71
2023/12/15 00:39:41;;;;;;;17.03;14.53;;;;;;;;;;5026180;28;20430;-70
2023/12/15 00:42:08;;;;;;;16.33;13.50;;;;;;;;;;5026296;28;20439;-70
2023/12/15 00:44:36;;;;;;;15.57;13.20;;;;;;;;;;5026085;28;20423;-70
2023/12/15 00:47:03;;;;;;;15.32;13.60;;;;;;;;;;5017557;28;20426;-71
2023/12/15 00:49:30;;;;;;;15.57;13.38;;;;;;;;;;5025890;28;20421;-69
2023/12/15 00:51:57;;;;;;;16.52;14.75;;;;;;;;;;5023713;28;20520;-71
2023/12/15 00:54:25;;;;;;;16.05;14.35;;;;;;;;;;5028920;28;20434;-70
2023/12/15 00:56:52;;;;;;;15.98;13.80;;;;;;;;;;5024069;28;20438;-70
2023/12/15 00:59:19;;;;;;;16.45;13.70;;;;;;;;;;5025979;28;20434;-70
2023/12/15 01:01:46;;;;;;;16.38;14.43;;;;;;;;;;5025705;28;20423;-70
2023/12/15 01:04:13;;;;;;;16.20;14.10;;;;;;;;;;5026544;28;20418;-70
2023/12/15 01:06:40;;;;;;;18.38;15.45;;;;;;;;;;5025166;28;20810;-70
2023/12/15 01:09:08;;;;;;;17.37;14.20;;;;;;;;;;5025622;28;20494;-70
2023/12/15 01:11:36;;;;;;;16.30;14.20;;;;;;;;;;5026118;28;20748;-70
2023/12/15 01:14:03;;;;;;;15.85;14.15;;;;;;;;;;5024088;28;20683;-70
2023/12/15 01:16:30;;;;;;;15.93;14.23;;;;;;;;;;5024015;28;20445;-70
2023/12/15 01:18:57;;;;;;;17.40;14.70;;;;;;;;;;5024924;28;20767;-70
2023/12/15 01:21:24;;;;;;;18.60;14.70;;;;;;;;;;5024663;28;20774;-70
2023/12/15 01:23:51;;;;;;;16.58;14.52;;;;;;;;;;5023815;28;20529;-70
2023/12/15 01:26:19;;;;;;;17.63;14.40;;;;;;;;;;5025248;28;20433;-70
2023/12/15 01:28:47;;;;;;;17.30;13.52;;;;;;;;;;5025470;28;20422;-71
2023/12/15 01:31:14;;;;;;;15.95;13.93;;;;;;;;;;5024979;28;20847;-70
2023/12/15 01:33:41;;;;;;;15.70;14.00;;;;;;;;;;5023900;28;20959;-70
2023/12/15 01:36:08;;;;;;;15.70;13.80;;;;;;;;;;5024406;28;21010;-70
2023/12/15 01:38:35;;;;;;;17.50;14.30;;;;;;;;;;5024551;28;20454;-70
2023/12/15 01:41:02;;;;;;;16.17;14.35;;;;;;;;;;5024334;28;20470;-71
2023/12/15 01:43:29;;;;;;;16.23;14.07;;;;;;;;;;5024031;28;20446;-70
2023/12/15 01:45:57;;;;;;;16.20;14.02;;;;;;;;;;5020119;28;20431;-70
2023/12/15 01:48:24;;;;;;;17.10;14.30;;;;;;;;;;5023690;28;20451;-70
2023/12/15 01:50:52;;;;;;;17.35;14.30;;;;;;;;;;5025012;28;20455;-70
2023/12/15 01:53:20;;;;;;;19.08;14.35;;;;;;;;;;5023166;28;20439;-70
2023/12/15 01:55:47;;;;;;;17.52;13.90;;;;;;;;;;5018441;28;20419;-70
2023/12/15 01:58:14;;;;;;;15.57;13.88;;;;;;;;;;5022913;28;20924;-70
2023/12/15 02:00:41;;;;;;;15.45;13.57;;;;;;;;;;5025131;28;20902;-70
2023/12/15 02:03:10;;;;;;;16.92;13.43;;;;;;;;;;5024655;28;20445;-70
2023/12/15 02:05:37;;;;;;;17.70;13.10;;;;;;;;;;5020237;28;20448;-70
2023/12/15 02:08:04;;;;;;;15.32;13.25;;;;;;;;;;5020524;28;20427;-70
2023/12/15 02:10:31;;;;;;;16.40;14.10;;;;;;;;;;5025725;28;20419;-71
2023/12/15 02:12:58;;;;;;;16.17;14.20;;;;;;;;;;5025135;28;20430;-70
2023/12/15 02:15:25;;;;;;;16.95;14.60;;;;;;;;;;5024197;28;20419;-70
2023/12/15 02:17:52;;;;;;;16.42;13.80;;;;;;;;;;5024015;28;20442;-70
2023/12/15 02:20:20;;;;;;;16.08;13.27;;;;;;;;;;5024223;28;20414;-70
2023/12/15 02:22:49;;;;;;;18.98;14.60;;;;;;;;;;5019573;28;20637;-71
2023/12/15 02:25:16;;;;;;;16.05;14.35;;;;;;;;;;5017363;28;20426;-70
2023/12/15 02:27:43;;;;;;;18.20;14.40;;;;;;;;;;5025159;28;20491;-69
2023/12/15 02:30:10;;;;;;;17.13;14.35;;;;;;;;;;5023501;28;21141;-70
2023/12/15 02:32:37;;;;;;;17.38;15.57;;;;;;;;;;5021391;28;20465;-69
2023/12/15 02:35:05;;;;;;;15.90;14.20;;;;;;;;;;5021278;28;20427;-69
2023/12/15 02:37:32;;;;;;;16.30;14.48;;;;;;;;;;5012324;28;20521;-70
2023/12/15 02:40:00;;;;;;;18.73;15.00;;;;;;;;;;5013426;28;20431;-70
2023/12/15 02:42:27;;;;;;;17.73;14.82;;;;;;;;;;5021750;28;20419;-70
2023/12/15 02:44:54;;;;;;;16.58;14.05;;;;;;;;;;5014425;28;20439;-70
2023/12/15 02:47:21;;;;;;;17.30;14.50;;;;;;;;;;5023230;28;20415;-70
2023/12/15 02:49:48;;;;;;;18.02;14.27;;;;;;;;;;5016087;28;20446;-70
2023/12/15 02:52:15;;;;;;;16.98;14.13;;;;;;;;;;5023927;28;20446;-70
2023/12/15 02:54:42;;;;;;;17.95;14.93;;;;;;;;;;5017888;28;20506;-69
2023/12/15 02:57:11;;;;;;;15.95;14.20;;;;;;;;;;5021951;28;20426;-70
2023/12/15 02:59:38;;;;;;;17.57;14.93;;;;;;;;;;5019851;28;20440;-70
2023/12/15 03:02:05;;;;;;;17.70;14.70;;;;;;;;;;5022114;28;20418;-71
2023/12/15 03:04:32;;;;;;;18.17;14.80;;;;;;;;;;5024509;28;20484;-70
2023/12/15 03:07:00;;;;;;;16.53;14.67;;;;;;;;;;5023832;28;20497;-70
2023/12/15 03:09:27;;;;;;;18.40;14.50;;;;;;;;;;5022220;28;20426;-70
2023/12/15 03:11:54;;;;;;;16.90;13.95;;;;;;;;;;5022276;28;20447;-69
2023/12/15 03:14:22;;;;;;;16.45;14.32;;;;;;;;;;5023262;28;20510;-70
2023/12/15 03:16:49;;;;;;;16.45;14.65;;;;;;;;;;5023238;28;20415;-70
2023/12/15 03:19:16;;;;;;;18.40;14.95;;;;;;;;;;5021919;28;20462;-70
2023/12/15 03:21:43;;;;;;;17.30;14.70;;;;;;;;;;5022614;28;20785;-70
2023/12/15 03:24:10;;;;;;;18.58;14.57;;;;;;;;;;5021964;28;20899;-71
2023/12/15 03:26:37;;;;;;;16.77;14.43;;;;;;;;;;5017156;28;20839;-71
2023/12/15 03:29:04;;;;;;;17.08;14.60;;;;;;;;;;5021730;28;20422;-70
2023/12/15 03:31:33;;;;;;;17.52;13.95;;;;;;;;;;5023321;28;20475;-70
2023/12/15 03:34:00;;;;;;;17.85;14.82;;;;;;;;;;5022174;28;21028;-70
2023/12/15 03:36:27;;;;;;;20.75;13.70;;;;;;;;;;5023247;28;20498;-70
2023/12/15 03:38:54;;;;;;;16.00;13.43;;;;;;;;;;5022905;28;20446;-70
2023/12/15 03:41:21;;;;;;;15.02;13.18;;;;;;;;;;5023195;28;20419;-70
2023/12/15 03:43:48;;;;;;;18.00;14.07;;;;;;;;;;5024144;28;20766;-70
2023/12/15 03:46:15;;;;;;;16.17;14.10;;;;;;;;;;5022541;28;20414;-69
2023/12/15 03:48:44;;;;;;;16.35;13.60;;;;;;;;;;5017144;28;20416;-70
2023/12/15 03:51:11;;;;;;;17.15;13.32;;;;;;;;;;5024284;28;20785;-70
2023/12/15 03:53:38;;;;;;;16.25;13.10;;;;;;;;;;5022845;28;20725;-70
2023/12/15 03:56:05;;;;;;;15.82;13.57;;;;;;;;;;5023244;28;20421;-70
2023/12/15 03:58:32;;;;;;;16.60;12.90;;;;;;;;;;5023831;28;20499;-70
2023/12/15 04:00:59;;;;;;;15.30;13.52;;;;;;;;;;5025352;28;20423;-70
2023/12/15 04:03:27;;;;;;;16.30;13.40;;;;;;;;;;5027869;28;20475;-70
2023/12/15 04:05:56;;;;;;;17.30;13.60;;;;;;;;;;5022255;28;20906;-70
2023/12/15 04:08:23;;;;;;;15.00;13.40;;;;;;;;;;5026916;28;20461;-70
2023/12/15 04:10:50;;;;;;;16.58;13.73;;;;;;;;;;5026861;28;20465;-70
2023/12/15 04:13:17;;;;;;;17.08;13.93;;;;;;;;;;5026187;28;20445;-70
2023/12/15 04:15:44;;;;;;;16.10;13.32;;;;;;;;;;5026341;28;20509;-70
2023/12/15 04:18:11;;;;;;;14.27;12.68;;;;;;;;;;5019574;28;20446;-70
2023/12/15 04:20:39;;;;;;;15.25;13.13;;;;;;;;;;5026657;28;20419;-70
2023/12/15 04:23:08;;;;;;;15.90;12.88;;;;;;;;;;5027803;28;20426;-70
2023/12/15 04:25:35;;;;;;;15.23;13.63;;;;;;;;;;5027610;28;20873;-70
2023/12/15 04:28:02;;;;;;;14.45;12.85;;;;;;;;;;5027322;28;20490;-70
2023/12/15 04:30:29;;;;;;;13.93;12.32;;;;;;;;;;5023264;28;20421;-70
2023/12/15 04:32:56;;;;;;;14.90;12.68;;;;;;;;;;5025596;28;20881;-70
2023/12/15 04:35:24;;;;;;;15.40;12.80;;;;;;;;;;5025140;28;20495;-70
2023/12/15 04:37:51;;;;;;;14.95;12.50;;;;;;;;;;5026619;28;20960;-70
2023/12/15 04:40:19;;;;;;;14.50;12.25;;;;;;;;;;5025590;28;20448;-70
2023/12/15 04:42:46;;;;;;;14.57;13.07;;;;;;;;;;5026535;28;20418;-70
2023/12/15 04:45:13;;;;;;;15.35;13.23;;;;;;;;;;5025612;28;20422;-70
2023/12/15 04:47:40;;;;;;;14.15;12.40;;;;;;;;;;5020435;28;20415;-70
2023/12/15 04:50:08;;;;;;;15.25;13.02;;;;;;;;;;5022966;28;20415;-71
2023/12/15 04:52:35;;;;;;;15.25;13.25;;;;;;;;;;5023798;28;20438;-70
2023/12/15 04:55:02;;;;;;;15.40;12.40;;;;;;;;;;5034695;28;20517;-70
2023/12/15 04:57:31;;;;;;;15.70;13.15;;;;;;;;;;5036236;28;20422;-70
2023/12/15 04:59:58;;;;;;;16.05;13.45;;;;;;;;;;5035383;28;20445;-70
2023/12/15 05:02:25;;;;;;;16.60;13.20;;;;;;;;;;5019492;28;20415;-70
2023/12/15 05:04:52;;;;;;;17.33;13.38;;;;;;;;;;5022780;28;20418;-70
2023/12/15 05:07:19;;;;;;;16.90;14.43;;;;;;;;;;5024856;28;20441;-70
2023/12/15 05:09:48;;;;;;;15.57;13.82;;;;;;;;;;5025552;28;20904;-70
2023/12/15 05:12:15;;;;;;;18.30;13.85;;;;;;;;;;5023750;28;20427;-70
2023/12/15 05:14:43;;;;;;;17.25;13.50;;;;;;;;;;5026427;28;20508;-70
2023/12/15 05:17:11;;;;;;;16.52;13.90;;;;;;;;;;5022795;28;20411;-70
2023/12/15 05:19:37;;;;;;;17.80;14.10;;;;;;;;;;5023227;28;20427;-70
2023/12/15 05:22:04;;;;;;;16.52;13.18;;;;;;;;;;5014349;28;20574;-70
2023/12/15 05:24:34;;;;;;;17.63;13.70;;;;;;;;;;5026907;28;20418;-70
2023/12/15 05:27:01;;;;;;;15.82;12.48;;;;;;;;;;5026946;28;20422;-70
2023/12/15 05:29:28;;;;;;;15.50;13.90;;;;;;;;;;5026186;28;20422;-69
2023/12/15 05:31:57;;;;;;;19.08;13.77;;;;;;;;;;5018616;28;20423;-70
2023/12/15 05:34:24;;;;;;;16.20;13.70;;;;;;;;;;5024779;28;20917;-69
2023/12/15 05:36:51;;;;;;;16.95;13.60;;;;;;;;;;5023085;28;20446;-69
2023/12/15 05:39:18;;;;;;;17.23;13.50;;;;;;;;;;5024526;28;20503;-69
2023/12/15 05:41:45;;;;;;;14.65;12.90;;;;;;;;;;5025446;28;20494;-69
2023/12/15 05:44:12;;;;;;;16.73;13.45;;;;;;;;;;5023375;28;20414;-69
2023/12/15 05:46:42;;;;;;;17.25;13.10;;;;;;;;;;5023664;28;20735;-69
2023/12/15 05:49:10;;;;;;;16.70;13.40;;;;;;;;;;5026126;28;20430;-68
2023/12/15 05:51:37;;;;;;;14.60;12.07;;;;;;;;;;5020961;28;20594;-68
2023/12/15 05:54:05;;;;;;;14.20;12.30;;;;;;;;;;5025399;28;20438;-68
2023/12/15 05:56:32;;;;;;;13.48;11.80;;;;;;;;;;5024512;28;20419;-69
2023/12/15 05:58:59;;;;;;;15.32;12.27;;;;;;;;;;5025241;28;20874;-68
2023/12/15 06:01:26;;;;;;;14.02;12.02;;;;;;;;;;5025880;28;20427;-69
2023/12/15 06:03:53;;;;;;;15.40;12.73;;;;;;;;;;5023573;28;20763;-68
2023/12/15 06:06:22;;;;;;;14.10;12.40;;;;;;;;;;5019437;28;20832;-69
2023/12/15 06:08:49;;;;;;;17.55;12.52;;;;;;;;;;5024704;28;20435;-71
2023/12/15 06:11:17;;;;;;;16.48;13.40;;;;;;;;;;5015464;28;20866;-70
2023/12/15 06:13:44;;;;;;;17.77;14.45;;;;;;;;;;5023672;28;20426;-71
2023/12/15 06:16:17;;;;;;;16.17;13.10;;;;;;;;;;5021683;28;20435;-68
2023/12/15 06:18:44;;;;;;;16.38;13.60;;;;;;;;;;5023412;28;20434;-69
2023/12/15 06:21:20;;;;;;;17.08;13.52;;;;;;;;;;5022264;28;20913;-69
2023/12/15 06:23:48;;;;;;;16.92;13.80;;;;;;;;;;5024981;28;20786;-69
2023/12/15 06:26:18;;;;;;;15.30;12.40;;;;;;;;;;5023554;28;20411;-69
2023/12/15 06:28:45;;;;;;;15.67;11.97;;;;;;;;;;5017107;28;20415;-69
2023/12/15 06:31:12;;;;;;;14.05;12.43;;;;;;;;;;5017042;28;20422;-68
2023/12/15 06:33:39;;;;;;;14.03;11.20;;;;;;;;;;5016685;28;20456;-68
2023/12/15 06:36:06;;;;;;;14.70;11.50;;;;;;;;;;5020502;28;20422;-69
2023/12/15 06:38:33;;;;;;;14.02;11.57;;;;;;;;;;5015968;28;20443;-68
2023/12/15 06:41:02;;;;;;;14.13;11.30;;;;;;;;;;5009120;28;20831;-69
2023/12/15 06:43:29;;;;;;;13.93;10.88;;;;;;;;;;5025101;28;20855;-69
2023/12/15 06:45:56;;;;;;;13.15;10.98;;;;;;;;;;5017570;28;20410;-69
2023/12/15 06:48:23;;;;;;;13.15;11.73;;;;;;;;;;5024970;28;20434;-69
2023/12/15 06:50:50;;;;;;;13.38;11.00;;;;;;;;;;5025682;28;20434;-68
2023/12/15 06:53:18;;;;;;;14.65;11.80;;;;;;;;;;5015234;28;20435;-69
2023/12/15 06:55:45;;;;;;;15.05;12.00;;;;;;;;;;5022477;28;20447;-69
2023/12/15 06:58:13;;;;;;;14.13;11.30;;;;;;;;;;5023468;28;20430;-69
2023/12/15 07:00:40;;;;;;;15.57;12.15;;;;;;;;;;5022525;28;20435;-69
2023/12/15 07:03:08;;;;;;;12.35;10.90;;;;;;;;;;5025419;28;20434;-69
2023/12/15 07:05:35;;;;;;;13.52;11.43;;;;;;;;;;5024065;28;20429;-69
2023/12/15 07:08:02;;;;;;;14.68;11.25;;;;;;;;;;5023163;28;20441;-69
2023/12/15 07:10:30;;;;;;;13.70;11.90;;;;;;;;;;5025157;28;20517;-70
2023/12/15 07:12:57;;;;;;;14.85;11.80;;;;;;;;;;5031961;28;20428;-69
2023/12/15 07:15:27;;;;;;;16.83;12.35;;;;;;;;;;5026180;28;20422;-69
2023/12/15 07:17:55;;;;;;;14.80;12.57;;;;;;;;;;5035496;28;20422;-70
2023/12/15 07:20:24;;;;;;;17.90;13.35;;;;;;;;;;5040213;28;20514;-70
2023/12/15 07:22:51;;;;;;;15.10;12.55;;;;;;;;;;5039057;28;20426;-70
2023/12/15 07:25:18;;;;;;;18.10;14.07;;;;;;;;;;5025310;28;20411;-69
2023/12/15 07:27:45;;;;;;;16.05;13.35;;;;;;;;;;5024250;28;20710;-69
2023/12/15 07:30:13;;;;;;;17.48;14.27;;;;;;;;;;5025146;28;20414;-69
2023/12/15 07:32:41;;;;;;;19.67;13.63;;;;;;;;;;5017296;28;20414;-70
2023/12/15 07:35:09;;;;;;;17.05;13.85;;;;;;;;;;5026468;28;20422;-70
2023/12/15 07:37:36;;;;;;;15.68;13.18;;;;;;;;;;5025498;28;20411;-69
2023/12/15 07:40:05;;;;;;;16.52;12.90;;;;;;;;;;5028652;28;20583;-69
2023/12/15 07:42:32;;;;;;;17.33;14.32;;;;;;;;;;5028491;28;20522;-69
2023/12/15 07:44:59;;;;;;;16.52;12.65;;;;;;;;;;5028312;28;20522;-68
2023/12/15 07:47:26;;;;;;;19.02;13.45;;;;;;;;;;5026919;28;20415;-69
2023/12/15 07:49:55;;;;;;;18.80;14.20;;;;;;;;;;5025645;28;20422;-69
2023/12/15 07:52:22;;;;;;;17.52;13.27;;;;;;;;;;5023387;28;20434;-71
2023/12/15 07:54:49;;;;;;;18.30;13.88;;;;;;;;;;5020267;28;20447;-69
2023/12/15 07:57:16;;;;;;;17.20;13.80;;;;;;;;;;5019190;28;20531;-69
2023/12/15 07:59:43;;;;;;;17.97;13.90;;;;;;;;;;5028336;28;20489;-69
2023/12/15 08:02:10;;;;;;;17.30;13.48;;;;;;;;;;5028594;28;20415;-69
2023/12/15 08:04:37;;;;;;;15.20;13.02;;;;;;;;;;5028436;28;20426;-69
2023/12/15 08:07:06;;;;;;;18.63;14.13;;;;;;;;;;5027823;28;20450;-69
2023/12/15 08:09:33;;;;;;;16.00;13.45;;;;;;;;;;5027701;28;20407;-69
2023/12/15 08:12:01;;;;;;;17.20;14.32;;;;;;;;;;5027108;28;20414;-69
2023/12/15 08:14:28;;;;;;;19.30;14.77;;;;;;;;;;5029022;28;20427;-69
2023/12/15 08:16:55;;;;;;;17.77;13.82;;;;;;;;;;5027572;28;20419;-69
2023/12/15 08:19:22;;;;;;;17.58;14.50;;;;;;;;;;5027807;28;20882;-69
2023/12/15 08:21:49;;;;;;;17.13;13.50;;;;;;;;;;5027416;28;20423;-69
2023/12/15 08:24:18;;;;;;;17.20;13.57;;;;;;;;;;5028162;28;20419;-69
2023/12/15 08:26:45;;;;;;;16.95;13.60;;;;;;;;;;5027439;28;20426;-69
2023/12/15 08:29:12;;;;;;;17.48;14.43;;;;;;;;;;5027204;28;20430;-69
2023/12/15 08:31:39;;;;;;;16.48;13.50;;;;;;;;;;5027208;28;20415;-69
2023/12/15 08:34:06;;;;;;;17.58;14.90;;;;;;;;;;5027563;28;20757;-69
2023/12/15 08:36:33;;;;;;;17.43;13.90;;;;;;;;;;5024603;28;20533;-69
2023/12/15 08:39:00;;;;;;;21.38;16.05;;;;;;;;;;5025065;28;20902;-63
2023/12/15 08:41:28;;;;;;;18.13;14.77;;;;;;;;;;5016759;28;20454;-65
2023/12/15 08:43:55;;;;;;;19.85;15.55;;;;;;;;;;5026483;28;20727;-64
2023/12/15 08:46:24;;;;;;;17.27;15.48;;;;;;;;;;5025326;28;20411;-64
2023/12/15 08:48:51;;;;;;;21.38;16.52;;;;;;;;;;5027460;28;20419;-69
2023/12/15 08:51:18;;;;;;;22.48;17.85;;;;;;;;;;5017101;28;20501;-69
2023/12/15 08:53:45;;;;;;;23.43;18.07;;;;;;;;;;5021774;28;20643;-68
2023/12/15 08:56:12;;;;;;;24.95;19.13;;;;;;;;;;5022323;28;20502;-68
2023/12/15 08:58:41;;;;;;;26.83;19.90;;;;;;;;;;5026272;28;20746;-68
2023/12/15 09:01:08;;;;;;;28.27;20.33;;;;;;;;;;5025494;28;20832;-68
2023/12/15 09:03:36;;;;;;;29.55;20.80;;;;;;;;;;5025964;28;20758;-69
2023/12/15 09:06:03;;;;;;;28.98;20.23;;;;;;;;;;5023929;28;20422;-69
2023/12/15 09:08:30;;;;;;;30.65;22.05;;;;;;;;;;5025880;28;20762;-68
2023/12/15 09:10:57;;;;;;;31.63;22.15;;;;;;;;;;5022928;28;20519;-68
2023/12/15 09:13:24;;;;;;;27.88;21.42;;;;;;;;;;5018843;28;20903;-68
2023/12/15 09:15:53;;;;;;;27.88;21.20;;;;;;;;;;5026254;28;20430;-69
2023/12/15 09:18:21;;;;;;;31.50;21.88;;;;;;;;;;5025227;28;20542;-68
2023/12/15 09:20:48;;;;;;;29.33;21.83;;;;;;;;;;5026224;28;20541;-68
2023/12/15 09:23:15;;;;;;;29.80;21.50;;;;;;;;;;5026550;28;20699;-68
2023/12/15 09:25:42;;;;;;;29.55;21.35;;;;;;;;;;5031861;28;20469;-69
2023/12/15 09:28:10;;;;;;;26.20;21.15;;;;;;;;;;5041254;28;20485;-69
2023/12/15 09:30:37;;;;;;;26.85;21.17;;;;;;;;;;5040444;28;20433;-68
2023/12/15 09:33:06;;;;;;;28.15;22.77;;;;;;;;;;5029313;28;20430;-68
2023/12/15 09:35:33;;;;;;;27.90;21.00;;;;;;;;;;5026441;28;20980;-69
2023/12/15 09:38:00;;;;;;;30.35;22.00;;;;;;;;;;5026447;28;20530;-68
2023/12/15 09:40:29;;;;;;;27.17;20.75;;;;;;;;;;5026409;28;20506;-69
2023/12/15 09:42:56;;;;;;;26.70;20.48;;;;;;;;;;5025947;28;20993;-68
2023/12/15 09:45:24;;;;;;;29.40;21.50;;;;;;;;;;5025527;28;20415;-68
2023/12/15 09:47:51;;;;;;;28.40;20.88;;;;;;;;;;5026311;28;20411;-68
2023/12/15 09:50:23;;;;;;;24.33;19.02;;;;;;;;;;5026929;28;20542;-68
2023/12/15 09:52:51;;;;;;;25.25;19.77;;;;;;;;;;5021387;28;20500;-68
2023/12/15 09:55:18;;;;;;;25.20;20.23;;;;;;;;;;5023446;28;20901;-69
2023/12/15 09:57:45;;;;;;;25.25;21.23;;;;;;;;;;5027604;28;20454;-68
2023/12/15 10:00:13;;;;;;;26.88;20.90;;;;;;;;;;5033590;28;20438;-68
2023/12/15 10:02:40;;;;;;;27.80;20.80;;;;;;;;;;5041659;28;20430;-69
2023/12/15 10:05:08;;;;;;;26.00;20.60;;;;;;;;;;5041017;28;20418;-71
2023/12/15 10:07:36;;;;;;;25.65;19.77;;;;;;;;;;5033690;28;20434;-69
2023/12/15 10:10:03;;;;;;;27.20;20.70;;;;;;;;;;5028107;28;20403;-68
2023/12/15 10:12:31;;;;;;;25.23;19.77;;;;;;;;;;5028237;28;20423;-68
2023/12/15 10:14:57;;;;;;;28.13;20.92;;;;;;;;;;5027196;28;20502;-68
2023/12/15 10:17:24;;;;;;;25.57;20.60;;;;;;;;;;5026219;28;20423;-69
2023/12/15 10:19:51;;;;;;;26.40;20.90;;;;;;;;;;5026196;28;20411;-68
2023/12/15 10:22:18;;;;;;;24.23;19.30;;;;;;;;;;5026039;28;20411;-69
2023/12/15 10:24:47;;;;;;;26.55;19.63;;;;;;;;;;5025175;28;20471;-68
2023/12/15 10:27:14;;;;;;;24.58;20.05;;;;;;;;;;5024609;28;20410;-69
2023/12/15 10:29:41;;;;;;;24.70;19.05;;;;;;;;;;5024439;28;20878;-68
2023/12/15 10:32:08;;;;;;;25.75;20.02;;;;;;;;;;5024147;28;20476;-68
2023/12/15 10:34:35;;;;;;;22.85;20.00;;;;;;;;;;5024841;28;20820;-68
2023/12/15 10:37:03;;;;;;;20.85;18.02;;;;;;;;;;5024068;28;20415;-69
2023/12/15 10:39:30;;;;;;;24.27;19.05;;;;;;;;;;5025045;28;20415;-69
2023/12/15 10:41:59;;;;;;;23.45;19.48;;;;;;;;;;5026020;28;20443;-69
2023/12/15 10:44:27;;;;;;;22.58;19.17;;;;;;;;;;5026020;28;20422;-69
2023/12/15 10:46:54;;;;;;;25.25;19.10;;;;;;;;;;5023826;28;20536;-69
2023/12/15 10:49:22;;;;;;;22.50;18.60;;;;;;;;;;5017144;28;20415;-69
2023/12/15 10:51:50;;;;;;;26.00;20.00;;;;;;;;;;5024910;28;20461;-69
2023/12/15 10:54:18;;;;;;;24.15;17.75;;;;;;;;;;5020124;28;20833;-68
2023/12/15 10:56:47;;;;;;;24.88;18.33;;;;;;;;;;5017120;28;20500;-68
2023/12/15 10:59:16;;;;;;;20.63;17.13;;;;;;;;;;5024828;28;20422;-68
2023/12/15 11:01:46;;;;;;;24.25;19.20;;;;;;;;;;5025025;28;20434;-69
2023/12/15 11:04:22;;;;;;;22.95;18.88;;;;;;;;;;5024455;28;20430;-68
2023/12/15 11:06:50;;;;;;;24.80;19.30;;;;;;;;;;5023346;28;20555;-69
2023/12/15 11:09:27;;;;;;;23.25;18.92;;;;;;;;;;5024222;28;20434;-68
2023/12/15 11:12:20;;;;;;;22.38;17.67;;;;;;;;;;5029262;28;20976;-68
2023/12/15 11:14:53;;;;;;;24.25;18.40;;;;;;;;;;5028500;28;20488;-68
2023/12/15 11:17:20;;;;;;;22.63;17.60;;;;;;;;;;5026751;28;20510;-68
2023/12/15 11:19:50;;;;;;;24.17;18.77;;;;;;;;;;5028158;28;20414;-69
2023/12/15 11:22:18;;;;;;;22.27;17.92;;;;;;;;;;5029021;28;20599;-68
2023/12/15 11:24:45;;;;;;;26.20;19.98;;;;;;;;;;5029875;28;20461;-68
2023/12/15 11:27:13;;;;;;;27.70;20.33;;;;;;;;;;5027464;28;20603;-68
2023/12/15 11:29:40;;;;;;;22.98;19.17;;;;;;;;;;5030064;28;20423;-68
2023/12/15 11:32:26;;;;;;;23.23;18.60;;;;;;;;;;5027763;28;20418;-69
2023/12/15 11:34:54;;;;;;;26.73;20.60;;;;;;;;;;5027981;28;20419;-69
2023/12/15 11:37:21;;;;;;;23.40;18.77;;;;;;;;;;5027123;28;21108;-70
2023/12/15 11:39:49;;;;;;;22.88;18.77;;;;;;;;;;5028704;28;20421;-69
2023/12/15 11:42:16;;;;;;;26.63;18.63;;;;;;;;;;5024995;28;20928;-69
2023/12/15 11:44:45;;;;;;;24.23;19.38;;;;;;;;;;5021981;28;20423;-69
2023/12/15 11:47:12;;;;;;;22.30;18.15;;;;;;;;;;5027658;28;20491;-72
2023/12/15 11:49:42;;;;;;;24.98;18.00;;;;;;;;;;5028465;28;20446;-71
2023/12/15 11:52:11;;;;;;;26.03;20.20;;;;;;;;;;5025119;28;20414;-71
2023/12/15 11:54:38;;;;;;;24.40;18.30;;;;;;;;;;5025511;28;20434;-70
2023/12/15 11:57:06;;;;;;;23.67;18.20;;;;;;;;;;5026328;28;20822;-72
2023/12/15 11:59:36;;;;;;;26.10;19.23;;;;;;;;;;5025909;28;20414;-70
2023/12/15 12:02:03;;;;;;;23.92;19.25;;;;;;;;;;5025602;28;20509;-70
2023/12/15 12:04:30;;;;;;;24.73;19.08;;;;;;;;;;5025697;28;20529;-69
2023/12/15 12:06:58;;;;;;;29.70;19.65;;;;;;;;;;5026774;28;20423;-69
2023/12/15 12:09:26;;;;;;;26.38;18.83;;;;;;;;;;5026811;28;20422;-69
2023/12/15 12:11:55;;;;;;;22.27;18.25;;;;;;;;;;5025575;28;20411;-69
2023/12/15 12:14:23;;;;;;;25.48;18.48;;;;;;;;;;5018149;28;20446;-69
2023/12/15 12:16:51;;;;;;;24.60;18.58;;;;;;;;;;5019055;28;20520;-69
2023/12/15 12:19:18;;;;;;;23.05;17.15;;;;;;;;;;5017225;28;20557;-70
2023/12/15 12:21:47;;;;;;;22.33;18.77;;;;;;;;;;5022582;28;20430;-70
2023/12/15 12:24:14;;;;;;;23.45;18.73;;;;;;;;;;5020495;28;20438;-70
2023/12/15 12:26:42;;;;;;;25.77;20.35;;;;;;;;;;5026603;28;20419;-70
2023/12/15 12:29:10;;;;;;;25.98;18.20;;;;;;;;;;5026172;28;20430;-70
2023/12/15 12:31:37;;;;;;;23.20;18.00;;;;;;;;;;5021223;28;20456;-70
2023/12/15 12:34:04;;;;;;;25.83;18.73;;;;;;;;;;5018026;28;20535;-70
2023/12/15 12:36:31;;;;;;;28.17;18.73;;;;;;;;;;5025501;28;20415;-70
2023/12/15 12:38:59;;;;;;;23.88;17.73;;;;;;;;;;5025242;28;20438;-70
2023/12/15 12:41:26;;;;;;;25.90;18.17;;;;;;;;;;5026201;28;20989;-66
2023/12/15 12:43:54;;;;;;;23.10;17.33;;;;;;;;;;5024058;28;20419;-65
2023/12/15 12:46:21;;;;;;;23.92;17.05;;;;;;;;;;5022975;28;20426;-70
2023/12/15 12:48:49;;;;;;;24.60;18.58;;;;;;;;;;5024833;28;20785;-70
2023/12/15 12:51:17;;;;;;;24.45;17.85;;;;;;;;;;5024712;28;20407;-71
2023/12/15 12:53:45;;;;;;;24.13;18.35;;;;;;;;;;5022428;28;20514;-72
2023/12/15 12:56:12;;;;;;;21.95;17.38;;;;;;;;;;5024230;28;20829;-71
2023/12/15 12:58:39;;;;;;;22.17;16.45;;;;;;;;;;5024276;28;20493;-72
2023/12/15 13:01:08;;;;;;;23.10;18.33;;;;;;;;;;5024885;28;20442;-71
2023/12/15 13:03:36;;;;;;;20.67;17.10;;;;;;;;;;5025405;28;20481;-71
2023/12/15 13:06:03;;;;;;;19.37;15.93;;;;;;;;;;5024908;28;20629;-72
2023/12/15 13:08:30;;;;;;;26.35;17.92;;;;;;;;;;5025494;28;20425;-71
2023/12/15 13:10:57;;;;;;;23.20;18.13;;;;;;;;;;5023863;28;20790;-72
2023/12/15 13:13:24;;;;;;;22.02;16.75;;;;;;;;;;5024689;28;20482;-72
2023/12/15 13:15:51;;;;;;;19.42;15.50;;;;;;;;;;5025285;28;20423;-72
2023/12/15 13:18:19;;;;;;;23.70;17.63;;;;;;;;;;5024254;28;20501;-69
2023/12/15 13:20:46;;;;;;;21.95;16.70;;;;;;;;;;5024327;28;20423;-69
2023/12/15 13:23:13;;;;;;;21.73;17.83;;;;;;;;;;5025210;28;20464;-69
2023/12/15 13:25:40;;;;;;;20.80;16.40;;;;;;;;;;5025423;28;20415;-69
2023/12/15 13:28:09;;;;;;;23.17;17.17;;;;;;;;;;5024168;28;20427;-70
2023/12/15 13:30:37;;;;;;;19.15;15.90;;;;;;;;;;5025393;28;20502;-71
2023/12/15 13:33:04;;;;;;;23.95;16.10;;;;;;;;;;5024495;28;20793;-74
2023/12/15 13:35:33;;;;;;;21.85;16.95;;;;;;;;;;5021579;28;20427;-70
2023/12/15 13:38:00;;;;;;;22.42;17.27;;;;;;;;;;5025299;28;20411;-69
2023/12/15 13:40:27;;;;;;;21.73;16.50;;;;;;;;;;5020279;28;20422;-69
2023/12/15 13:42:54;;;;;;;22.58;17.27;;;;;;;;;;5023168;28;20423;-69
2023/12/15 13:45:22;;;;;;;20.52;17.13;;;;;;;;;;5022984;28;20418;-69
2023/12/15 13:47:49;;;;;;;22.00;16.60;;;;;;;;;;5023810;28;20414;-68
2023/12/15 13:50:17;;;;;;;21.83;16.77;;;;;;;;;;5026215;28;20419;-70
2023/12/15 13:52:45;;;;;;;22.35;17.30;;;;;;;;;;5025527;28;20549;-69
2023/12/15 13:55:12;;;;;;;22.95;17.92;;;;;;;;;;5020727;28;20411;-69
2023/12/15 13:57:39;;;;;;;21.73;16.55;;;;;;;;;;5024294;28;20437;-69
2023/12/15 14:00:08;;;;;;;23.60;17.30;;;;;;;;;;5025318;28;20415;-70
2023/12/15 14:02:36;;;;;;;25.42;17.27;;;;;;;;;;5078440;22;20538;-73
2023/12/15 14:05:03;;;;;;;22.30;17.88;;;;;;;;;;5060477;28;20419;-74
2023/12/15 14:07:31;;;;;;;24.52;18.05;;;;;;;;;;5063862;28;20893;-73
2023/12/15 14:09:59;;;;;;;22.42;17.70;;;;;;;;;;5061053;28;20521;-73
2023/12/15 14:12:27;;;;;;;24.45;17.40;;;;;;;;;;5064291;28;20413;-74
2023/12/15 14:14:54;;;;;;;26.17;17.63;;;;;;;;;;5063761;28;20420;-74
2023/12/15 14:17:21;;;;;;;24.52;17.88;;;;;;;;;;5064777;28;20491;-74